createdAt,value
2023-03-02T00:00:18.154Z,99780.59
2023-03-02T00:02:48.471Z,99782.94
2023-03-02T00:05:17.307Z,99778.38
2023-03-02T00:07:46.095Z,99774.78
2023-03-02T00:10:16.278Z,99770.31
2023-03-02T00:12:45.013Z,99765.78
2023-03-02T00:15:13.842Z,99772.41
2023-03-02T00:17:42.506Z,99774.34
2023-03-02T00:20:13.151Z,99769.59
2023-03-02T00:22:44.023Z,99771.50
2023-03-02T00:25:16.302Z,99768.09
2023-03-02T00:27:45.865Z,99771.25
2023-03-02T00:30:16.857Z,99770.25
2023-03-02T00:32:45.889Z,99773.94
2023-03-02T00:35:14.722Z,99768.59
2023-03-02T00:37:43.487Z,99760.91
2023-03-02T00:40:13.136Z,99762.72
2023-03-02T00:42:43.233Z,99757.66
2023-03-02T00:45:12.825Z,99761.03
2023-03-02T00:47:42.544Z,99751.78
2023-03-02T00:50:12.448Z,99756.53
2023-03-02T00:52:41.269Z,99750.19
2023-03-02T00:55:10.656Z,99747.84
2023-03-02T00:57:39.561Z,99745.47
2023-03-02T01:00:12.690Z,99735.56
2023-03-02T01:02:46.431Z,99721.38
2023-03-02T01:05:19.004Z,99725.97
2023-03-02T01:07:49.069Z,99724.84
2023-03-02T01:10:17.966Z,99727.69
2023-03-02T01:12:46.760Z,99721.13
2023-03-02T01:15:16.972Z,99725.59
2023-03-02T01:17:46.784Z,99716.78
2023-03-02T01:20:16.120Z,99725.91
2023-03-02T01:22:45.434Z,99719.84
2023-03-02T01:25:14.875Z,99721.94
2023-03-02T01:27:43.592Z,99723.16
2023-03-02T01:30:14.513Z,99725.16
2023-03-02T01:32:44.648Z,99715.09
2023-03-02T01:35:13.836Z,99717.72
2023-03-02T01:37:42.621Z,99708.78
2023-03-02T01:40:14.824Z,99717.53
2023-03-02T01:42:53.926Z,99709.59
2023-03-02T01:45:53.420Z,99715.59
2023-03-02T01:48:40.541Z,99714.94
2023-03-02T01:51:15.914Z,99702.88
2023-03-02T01:53:48.078Z,99707.34
2023-03-02T01:56:22.798Z,99705.41
2023-03-02T01:59:02.042Z,99712.91
2023-03-02T02:01:33.413Z,99703.31
2023-03-02T02:04:04.228Z,99703.00
2023-03-02T02:06:39.195Z,99700.44
2023-03-02T02:09:14.344Z,99701.28
2023-03-02T02:11:45.513Z,99691.06
2023-03-02T02:14:14.497Z,99691.31
2023-03-02T02:16:43.424Z,99688.84
2023-03-02T02:19:35.231Z,99689.06
2023-03-02T02:22:04.303Z,99690.47
2023-03-02T02:24:43.759Z,99682.94
2023-03-02T02:27:16.213Z,99681.47
2023-03-02T02:29:50.925Z,99686.53
2023-03-02T02:32:26.630Z,99684.59
2023-03-02T02:35:02.676Z,99672.59
2023-03-02T02:37:39.674Z,99678.53
2023-03-02T02:40:19.881Z,99677.03
2023-03-02T02:42:54.307Z,99676.00
2023-03-02T02:45:27.102Z,99675.50
2023-03-02T02:47:58.611Z,99672.69
2023-03-02T02:58:33.896Z,99661.91
2023-03-02T03:01:02.973Z,99659.72
2023-03-02T03:03:36.592Z,99664.50
2023-03-02T03:06:14.820Z,99667.16
2023-03-02T03:08:58.435Z,99659.44
2023-03-02T03:11:41.164Z,99665.13
2023-03-02T03:14:14.344Z,99665.84
2023-03-02T03:16:48.541Z,99663.03
2023-03-02T03:19:23.559Z,99662.97
2023-03-02T03:21:56.676Z,99664.91
2023-03-02T03:24:29.942Z,99659.44
2023-03-02T03:27:00.848Z,99664.44
2023-03-02T03:29:32.432Z,99655.78
2023-03-02T03:32:05.176Z,99652.00
2023-03-02T03:34:40.874Z,99647.25
2023-03-02T03:37:21.075Z,99649.47
2023-03-02T03:39:50.424Z,99660.25
2023-03-02T03:42:19.879Z,99654.63
2023-03-02T03:44:50.496Z,99661.53
2023-03-02T03:47:19.312Z,99655.69
2023-03-02T03:49:48.358Z,99657.50
2023-03-02T03:52:17.313Z,99653.88
2023-03-02T03:54:46.126Z,99654.66
2023-03-02T03:57:14.763Z,99653.63
2023-03-02T03:59:43.922Z,99655.25
2023-03-02T04:02:14.138Z,99657.56
2023-03-02T04:04:45.429Z,99661.78
2023-03-02T04:07:18.350Z,99667.72
2023-03-02T04:09:48.353Z,99657.78
2023-03-02T04:12:18.012Z,99663.41
2023-03-02T04:14:52.454Z,99662.19
2023-03-02T04:17:22.784Z,99663.41
2023-03-02T04:19:52.820Z,99663.03
2023-03-02T04:22:22.662Z,99658.81
2023-03-02T04:24:51.856Z,99658.63
2023-03-02T04:27:21.404Z,99665.13
2023-03-02T04:29:53.033Z,99662.56
2023-03-02T04:32:23.654Z,99668.34
2023-03-02T04:34:56.741Z,99666.16
2023-03-02T04:37:26.301Z,99663.28
2023-03-02T04:39:55.236Z,99660.09
2023-03-02T04:42:24.728Z,99654.06
2023-03-02T04:44:53.527Z,99661.75
2023-03-02T04:47:23.960Z,99659.28
2023-03-02T04:49:54.789Z,99657.31
2023-03-02T04:52:23.420Z,99658.22
2023-03-02T04:54:52.060Z,99663.75
2023-03-02T04:57:20.703Z,99661.25
2023-03-02T04:59:49.354Z,99657.78
2023-03-02T05:02:18.482Z,99656.75
2023-03-02T05:04:48.879Z,99659.19
2023-03-02T05:07:17.633Z,99658.09
2023-03-02T05:09:46.608Z,99653.88
2023-03-02T05:12:15.696Z,99647.88
2023-03-02T05:14:45.878Z,99644.38
2023-03-02T05:17:15.071Z,99646.09
2023-03-02T05:19:43.956Z,99637.44
2023-03-02T05:22:14.021Z,99633.00
2023-03-02T05:24:42.974Z,99644.75
2023-03-02T05:27:17.578Z,99637.34
2023-03-02T05:29:46.672Z,99640.34
2023-03-02T05:32:17.209Z,99641.75
2023-03-02T05:34:46.106Z,99634.47
2023-03-02T05:37:16.659Z,99636.44
2023-03-02T05:39:45.395Z,99633.84
2023-03-02T05:42:14.406Z,99626.88
2023-03-02T05:44:43.278Z,99634.97
2023-03-02T05:47:12.724Z,99628.38
2023-03-02T05:49:42.965Z,99631.16
2023-03-02T05:52:11.992Z,99633.44
2023-03-02T05:54:43.030Z,99637.94
2023-03-02T05:57:12.530Z,99637.84
2023-03-02T05:59:41.252Z,99638.56
2023-03-02T06:02:10.219Z,99638.25
2023-03-02T06:04:44.457Z,99643.47
2023-03-02T06:07:14.268Z,99644.13
2023-03-02T06:09:44.401Z,99641.88
2023-03-02T06:12:13.130Z,99648.19
2023-03-02T06:14:42.015Z,99654.34
2023-03-02T06:17:11.017Z,99660.09
2023-03-02T06:19:39.665Z,99661.38
2023-03-02T06:22:08.455Z,99663.84
2023-03-02T06:24:37.315Z,99661.56
2023-03-02T06:27:07.509Z,99656.00
2023-03-02T06:29:36.240Z,99659.31
2023-03-02T06:32:05.446Z,99665.50
2023-03-02T06:34:35.512Z,99665.19
2023-03-02T06:37:04.367Z,99663.72
2023-03-02T06:39:34.291Z,99662.56
2023-03-02T06:42:03.265Z,99650.22
2023-03-02T06:44:33.588Z,99663.75
2023-03-02T06:47:02.233Z,99653.88
2023-03-02T06:49:30.927Z,99661.66
2023-03-02T06:51:59.641Z,99657.94
2023-03-02T06:54:28.386Z,99653.00
2023-03-02T06:56:57.909Z,99654.94
2023-03-02T06:59:26.857Z,99652.91
2023-03-02T07:01:56.929Z,99655.66
2023-03-02T07:04:25.723Z,99649.63
2023-03-02T07:06:54.386Z,99659.59
2023-03-02T07:09:23.390Z,99649.53
2023-03-02T07:11:52.134Z,99651.59
2023-03-02T07:14:20.788Z,99642.47
2023-03-02T07:16:49.493Z,99636.81
2023-03-02T07:19:19.715Z,99640.56
2023-03-02T07:21:48.576Z,99640.16
2023-03-02T07:24:17.285Z,99637.94
2023-03-02T07:26:46.059Z,99633.13
2023-03-02T07:29:14.774Z,99646.09
2023-03-02T07:31:44.404Z,99639.47
2023-03-02T07:34:13.127Z,99640.84
2023-03-02T07:36:43.557Z,99645.56
2023-03-02T07:39:12.493Z,99631.16
2023-03-02T07:41:41.121Z,99633.53
2023-03-02T07:44:09.786Z,99632.56
2023-03-02T07:46:38.536Z,99634.88
2023-03-02T07:49:07.250Z,99635.44
2023-03-02T07:51:35.906Z,99633.94
2023-03-02T07:54:06.046Z,99635.59
2023-03-02T07:56:34.734Z,99637.50
2023-03-02T07:59:03.677Z,99635.19
2023-03-02T08:01:33.778Z,99645.25
2023-03-02T08:04:02.853Z,99637.78
2023-03-02T08:06:32.328Z,99644.41
2023-03-02T08:09:03.764Z,99640.81
2023-03-02T08:11:34.183Z,99644.69
2023-03-02T08:14:04.070Z,99643.13
2023-03-02T08:16:33.107Z,99644.06
2023-03-02T08:19:01.796Z,99640.59
2023-03-02T08:21:31.058Z,99645.69
2023-03-02T08:23:59.857Z,99642.34
2023-03-02T08:26:28.727Z,99643.97
2023-03-02T08:28:59.544Z,99638.50
2023-03-02T08:31:28.720Z,99638.59
2023-03-02T08:33:59.480Z,99637.75
2023-03-02T08:36:28.435Z,99640.47
2023-03-02T08:38:57.065Z,99640.41
2023-03-02T08:41:26.208Z,99640.34
2023-03-02T08:43:55.449Z,99635.84
2023-03-02T08:46:25.741Z,99636.59
2023-03-02T08:48:54.461Z,99636.38
2023-03-02T08:51:26.851Z,99636.16
2023-03-02T08:53:57.094Z,99642.84
2023-03-02T08:56:31.385Z,99628.44
2023-03-02T08:59:03.076Z,99628.56
2023-03-02T09:01:36.050Z,99622.81
2023-03-02T09:04:08.329Z,99612.38
2023-03-02T09:06:40.114Z,99623.53
2023-03-02T09:09:11.324Z,99616.72
2023-03-02T09:11:42.303Z,99610.00
2023-03-02T09:14:12.172Z,99611.38
2023-03-02T09:16:42.517Z,99602.59
2023-03-02T09:19:13.268Z,99600.22
2023-03-02T09:21:42.077Z,99598.69
2023-03-02T09:24:11.192Z,99597.50
2023-03-02T09:26:40.327Z,99605.41
2023-03-02T09:29:09.526Z,99594.72
2023-03-02T09:31:39.220Z,99593.31
2023-03-02T09:34:09.625Z,99586.53
2023-03-02T09:36:39.114Z,99598.78
2023-03-02T09:39:12.449Z,99599.03
2023-03-02T09:42:25.427Z,99593.06
2023-03-02T09:45:26.039Z,99590.22
2023-03-02T09:48:12.378Z,99595.66
2023-03-02T09:50:57.564Z,99601.97
2023-03-02T09:53:42.522Z,99595.84
2023-03-02T09:56:18.782Z,99590.50
2023-03-02T09:58:57.631Z,99595.06
2023-03-02T10:01:40.583Z,99589.47
2023-03-02T10:04:23.767Z,99588.41
2023-03-02T10:07:11.859Z,99594.88
2023-03-02T10:09:41.369Z,99595.81
2023-03-02T10:12:38.148Z,99589.06
2023-03-02T10:15:15.850Z,99589.06
2023-03-02T10:18:00.902Z,99588.16
2023-03-02T10:20:38.491Z,99586.19
2023-03-02T10:23:49.374Z,99584.56
2023-03-02T10:26:29.637Z,99585.03
2023-03-02T10:29:06.689Z,99578.41
2023-03-02T10:31:35.539Z,99582.03
2023-03-02T10:34:04.492Z,99580.19
2023-03-02T10:36:40.281Z,99571.75
2023-03-02T10:39:17.161Z,99571.47
2023-03-02T10:41:52.759Z,99577.50
2023-03-02T10:44:26.918Z,99575.84
2023-03-02T10:46:56.239Z,99581.34
2023-03-02T10:49:32.158Z,99577.06
2023-03-02T10:52:04.310Z,99577.63
2023-03-02T10:54:37.159Z,99575.34
2023-03-02T10:57:29.012Z,99574.59
2023-03-02T11:00:03.461Z,99567.44
2023-03-02T11:02:37.669Z,99563.03
2023-03-02T11:05:32.368Z,99564.75
2023-03-02T11:08:03.879Z,99559.44
2023-03-02T11:10:37.366Z,99563.41
2023-03-02T11:13:28.188Z,99555.00
2023-03-02T11:16:00.744Z,99542.31
2023-03-02T11:18:35.997Z,99534.72
2023-03-02T11:21:11.613Z,99530.00
2023-03-02T11:23:58.964Z,99524.50
2023-03-02T11:26:36.269Z,99523.22
2023-03-02T11:29:14.832Z,99513.97
2023-03-02T11:31:50.519Z,99515.53
2023-03-02T11:34:30.598Z,99507.56
2023-03-02T11:37:21.695Z,99501.78
2023-03-02T11:40:06.623Z,99502.72
2023-03-02T11:42:42.186Z,99503.78
2023-03-02T11:45:22.885Z,99502.06
2023-03-02T11:48:03.227Z,99504.38
2023-03-02T11:50:38.142Z,99496.03
2023-03-02T11:53:15.141Z,99497.56
2023-03-02T11:55:48.679Z,99500.91
2023-03-02T11:58:24.282Z,99497.25
2023-03-02T12:00:56.262Z,99488.75
2023-03-02T12:03:40.675Z,99484.88
2023-03-02T12:06:37.665Z,99479.34
2023-03-02T12:09:30.942Z,99475.13
2023-03-02T12:12:22.899Z,99469.81
2023-03-02T12:14:53.631Z,99477.16
2023-03-02T12:17:35.146Z,99474.25
2023-03-02T12:20:27.147Z,99468.13
2023-03-02T12:23:08.902Z,99470.94
2023-03-02T12:25:51.564Z,99466.53
2023-03-02T12:28:34.006Z,99463.25
2023-03-02T12:31:15.038Z,99460.28
2023-03-02T12:33:48.856Z,99456.63
2023-03-02T12:36:27.458Z,99455.03
2023-03-02T12:39:18.322Z,99445.63
2023-03-02T12:42:24.712Z,99451.75
2023-03-02T12:45:05.611Z,99455.09
2023-03-02T12:47:37.592Z,99443.22
2023-03-02T12:50:25.063Z,99446.94
2023-03-02T12:53:00.120Z,99436.13
2023-03-02T12:55:30.282Z,99431.44
2023-03-02T12:58:01.842Z,99432.28
2023-03-02T13:00:33.718Z,99439.59
2023-03-02T13:03:07.153Z,99426.13
2023-03-02T13:05:37.637Z,99421.66
2023-03-02T13:08:09.752Z,99422.47
2023-03-02T13:10:43.790Z,99416.16
2023-03-02T13:13:20.245Z,99409.84
2023-03-02T13:15:52.133Z,99402.22
2023-03-02T13:18:23.724Z,99403.50
2023-03-02T13:20:54.169Z,99407.63
2023-03-02T13:23:22.963Z,99411.53
2023-03-02T13:25:55.144Z,99406.47
2023-03-02T13:28:29.822Z,99403.56
2023-03-02T13:31:01.876Z,99394.81
2023-03-02T13:33:34.811Z,99398.13
2023-03-02T13:36:04.166Z,99392.16
2023-03-02T13:38:38.516Z,99391.34
2023-03-02T13:41:09.410Z,99393.94
2023-03-02T13:43:40.573Z,99392.31
2023-03-02T13:46:36.130Z,99384.34
2023-03-02T13:49:11.479Z,99389.53
2023-03-02T13:51:54.515Z,99383.59
2023-03-02T13:54:33.084Z,99388.91
2023-03-02T13:57:10.801Z,99383.78
2023-03-02T13:59:40.009Z,99379.66
2023-03-02T14:02:24.753Z,99388.28
2023-03-02T14:04:56.148Z,99378.03
2023-03-02T14:07:26.754Z,99380.31
2023-03-02T14:09:57.538Z,99374.34
2023-03-02T14:12:30.456Z,99372.34
2023-03-02T14:15:03.665Z,99369.69
2023-03-02T14:17:32.811Z,99367.03
2023-03-02T14:20:02.998Z,99361.31
2023-03-02T14:22:35.684Z,99364.59
2023-03-02T14:25:09.079Z,99367.44
2023-03-02T14:27:40.904Z,99352.72
2023-03-02T14:30:20.633Z,99353.09
2023-03-02T14:32:49.739Z,99356.00
2023-03-02T14:35:20.314Z,99357.22
2023-03-02T14:37:52.178Z,99350.25
2023-03-02T14:40:28.417Z,99347.84
2023-03-02T14:42:58.671Z,99339.28
2023-03-02T14:45:29.297Z,99341.75
2023-03-02T14:48:00.287Z,99347.88
2023-03-02T14:50:30.404Z,99342.22
2023-03-02T14:53:00.220Z,99340.72
2023-03-02T14:55:31.893Z,99338.03
2023-03-02T14:58:04.244Z,99346.16
2023-03-02T15:00:33.531Z,99331.44
2023-03-02T15:03:02.362Z,99332.38
2023-03-02T15:05:33.429Z,99338.94
2023-03-02T15:08:02.183Z,99326.28
2023-03-02T15:10:31.149Z,99324.22
2023-03-02T15:12:59.948Z,99328.09
2023-03-02T15:15:28.717Z,99330.31
2023-03-02T15:17:57.643Z,99327.19
2023-03-02T15:20:26.455Z,99328.59
2023-03-02T15:22:56.738Z,99327.31
2023-03-02T15:25:26.075Z,99326.06
2023-03-02T15:27:57.103Z,99330.75
2023-03-02T15:30:30.519Z,99327.19
2023-03-02T15:33:00.236Z,99327.13
2023-03-02T15:35:29.888Z,99336.94
2023-03-02T15:38:02.876Z,99326.66
2023-03-02T15:40:31.930Z,99327.06
2023-03-02T15:43:00.671Z,99327.41
2023-03-02T15:45:30.392Z,99329.81
2023-03-02T15:47:59.355Z,99324.28
2023-03-02T15:50:28.113Z,99327.00
2023-03-02T15:52:58.429Z,99326.75
2023-03-02T15:55:29.640Z,99324.28
2023-03-02T15:58:00.028Z,99323.75
2023-03-02T16:00:29.372Z,99330.09
2023-03-02T16:02:58.099Z,99320.66
2023-03-02T16:05:27.272Z,99320.56
2023-03-02T16:07:56.060Z,99324.59
2023-03-02T16:10:27.265Z,99325.50
2023-03-02T16:12:57.489Z,99328.44
2023-03-02T16:15:29.735Z,99329.69
2023-03-02T16:17:58.588Z,99333.81
2023-03-02T16:20:27.293Z,99343.03
2023-03-02T16:22:56.632Z,99342.13
2023-03-02T16:25:54.625Z,99342.66
2023-03-02T16:28:24.809Z,99337.56
2023-03-02T16:31:05.345Z,99349.47
2023-03-02T16:33:35.122Z,99347.78
2023-03-02T16:36:04.716Z,99360.16
2023-03-02T16:38:36.093Z,99361.72
2023-03-02T16:41:05.901Z,99365.50
2023-03-02T16:43:36.099Z,99363.50
2023-03-02T16:46:05.142Z,99365.25
2023-03-02T16:48:33.924Z,99359.72
2023-03-02T16:51:03.332Z,99369.69
2023-03-02T16:53:32.103Z,99360.59
2023-03-02T16:56:00.921Z,99366.09
2023-03-02T16:58:29.758Z,99363.19
2023-03-02T17:01:00.060Z,99370.81
2023-03-02T17:03:29.028Z,99367.31
2023-03-02T17:05:57.975Z,99369.88
2023-03-02T17:08:26.962Z,99368.91
2023-03-02T17:10:56.116Z,99371.44
2023-03-02T17:13:25.042Z,99372.94
2023-03-02T17:15:53.961Z,99372.25
2023-03-02T17:18:24.609Z,99375.28
2023-03-02T17:20:53.759Z,99383.56
2023-03-02T17:23:22.837Z,99378.91
2023-03-02T17:25:56.141Z,99383.38
2023-03-02T17:28:25.705Z,99387.69
2023-03-02T17:30:54.593Z,99387.38
2023-03-02T17:33:24.837Z,99383.94
2023-03-02T17:35:53.605Z,99394.78
2023-03-02T17:38:23.708Z,99389.53
2023-03-02T17:40:52.526Z,99391.16
2023-03-02T17:43:23.143Z,99386.91
2023-03-02T17:45:52.472Z,99388.25
2023-03-02T17:48:21.431Z,99385.75
2023-03-02T17:50:52.192Z,99390.19
2023-03-02T17:53:21.240Z,99385.09
2023-03-02T17:55:53.228Z,99386.41
2023-03-02T17:58:25.202Z,99385.25
2023-03-02T18:00:54.178Z,99391.34
2023-03-02T18:03:23.043Z,99395.81
2023-03-02T18:05:53.903Z,99404.38
2023-03-02T18:08:23.116Z,99398.63
2023-03-02T18:10:52.884Z,99404.56
2023-03-02T18:13:22.297Z,99403.09
2023-03-02T18:15:51.412Z,99401.09
2023-03-02T18:18:23.163Z,99409.19
2023-03-02T18:20:55.867Z,99410.31
2023-03-02T18:23:25.959Z,99414.94
2023-03-02T18:25:54.946Z,99420.34
2023-03-02T18:28:24.123Z,99429.13
2023-03-02T18:30:53.167Z,99426.16
2023-03-02T18:33:22.084Z,99422.19
2023-03-02T18:35:52.417Z,99432.06
2023-03-02T18:38:21.197Z,99430.25
2023-03-02T18:40:49.916Z,99437.34
2023-03-02T18:43:18.736Z,99425.50
2023-03-02T18:45:47.702Z,99443.91
2023-03-02T18:48:16.854Z,99441.28
2023-03-02T18:50:46.956Z,99442.25
2023-03-02T18:53:17.821Z,99437.81
2023-03-02T18:55:46.809Z,99438.63
2023-03-02T18:58:21.373Z,99441.63
2023-03-02T19:00:50.157Z,99441.63
2023-03-02T19:03:19.649Z,99440.78
2023-03-02T19:05:48.521Z,99439.44
2023-03-02T19:08:20.709Z,99436.47
2023-03-02T19:10:50.073Z,99451.13
2023-03-02T19:13:19.508Z,99450.19
2023-03-02T19:15:49.156Z,99454.94
2023-03-02T19:18:20.495Z,99449.66
2023-03-02T19:20:51.930Z,99450.66
2023-03-02T19:23:23.451Z,99455.13
2023-03-02T19:25:52.834Z,99450.19
2023-03-02T19:28:22.929Z,99460.56
2023-03-02T19:30:54.081Z,99462.00
2023-03-02T19:33:24.868Z,99461.38
2023-03-02T19:35:54.248Z,99454.09
2023-03-02T19:38:24.506Z,99454.38
2023-03-02T19:40:53.686Z,99459.09
2023-03-02T19:43:25.970Z,99452.63
2023-03-02T19:45:55.226Z,99452.66
2023-03-02T19:48:24.382Z,99454.84
2023-03-02T19:50:53.618Z,99454.19
2023-03-02T19:53:24.418Z,99459.31
2023-03-02T19:55:53.150Z,99456.66
2023-03-02T19:58:23.764Z,99459.00
2023-03-02T20:00:52.480Z,99463.91
2023-03-02T20:03:21.327Z,99458.31
2023-03-02T20:05:50.042Z,99463.59
2023-03-02T20:08:21.744Z,99463.59
2023-03-02T20:10:52.230Z,99465.22
2023-03-02T20:13:21.503Z,99461.25
2023-03-02T20:15:51.556Z,99457.63
2023-03-02T20:18:21.771Z,99458.09
2023-03-02T20:20:50.611Z,99458.25
2023-03-02T20:23:19.539Z,99461.56
2023-03-02T20:25:49.669Z,99463.22
2023-03-02T20:37:57.424Z,99475.16
2023-03-02T20:40:28.087Z,99474.19
2023-03-02T20:42:56.958Z,99472.97
2023-03-02T20:45:26.715Z,99481.75
2023-03-02T20:47:56.341Z,99482.47
2023-03-02T20:50:33.601Z,99480.53
2023-03-02T20:53:05.449Z,99481.38
2023-03-02T20:55:35.548Z,99486.13
2023-03-02T20:58:06.545Z,99478.22
2023-03-02T21:00:38.030Z,99478.84
2023-03-02T21:03:07.757Z,99485.47
2023-03-02T21:05:40.177Z,99482.84
2023-03-02T21:08:14.845Z,99465.69
2023-03-02T21:10:45.157Z,99467.66
2023-03-02T21:13:14.626Z,99470.59
2023-03-02T21:15:43.432Z,99462.13
2023-03-02T21:18:12.170Z,99462.31
2023-03-02T21:20:41.067Z,99468.94
2023-03-02T21:23:12.748Z,99458.41
2023-03-02T21:25:42.442Z,99461.03
2023-03-02T21:28:11.298Z,99463.97
2023-03-02T21:30:40.007Z,99460.50
2023-03-02T21:33:08.647Z,99458.38
2023-03-02T21:35:37.451Z,99459.31
2023-03-02T21:38:06.936Z,99463.28
2023-03-02T21:40:43.160Z,99458.13
2023-03-02T21:43:11.873Z,99460.78
2023-03-02T21:45:41.319Z,99473.25
2023-03-02T21:48:10.457Z,99462.13
2023-03-02T21:50:41.840Z,99464.28
2023-03-02T21:53:10.944Z,99457.88
2023-03-02T21:55:41.083Z,99465.13
2023-03-02T21:58:10.810Z,99460.69
2023-03-02T22:00:42.405Z,99456.91
2023-03-02T22:03:11.109Z,99452.78
2023-03-02T22:05:40.782Z,99449.00
2023-03-02T22:08:10.487Z,99455.41
2023-03-02T22:10:44.674Z,99456.84
2023-03-02T22:13:22.972Z,99451.88
2023-03-02T22:16:03.124Z,99467.38
2023-03-02T22:18:33.206Z,99454.84
2023-03-02T22:21:03.098Z,99460.75
2023-03-02T22:23:32.859Z,99466.50
2023-03-02T22:26:18.774Z,99465.16
2023-03-02T22:28:47.481Z,99467.56
2023-03-02T22:31:21.987Z,99466.38
2023-03-02T22:33:51.434Z,99471.25
2023-03-02T22:36:24.254Z,99473.44
2023-03-02T22:38:56.716Z,99482.53
2023-03-02T22:41:26.960Z,99466.59
2023-03-02T22:43:57.759Z,99472.50
2023-03-02T22:46:27.623Z,99468.91
2023-03-02T22:48:56.861Z,99469.88
2023-03-02T22:51:30.804Z,99470.84
2023-03-02T22:54:01.499Z,99466.59
2023-03-02T22:56:35.598Z,99461.97
2023-03-02T22:59:15.464Z,99459.50
2023-03-02T23:01:46.641Z,99454.19
2023-03-02T23:04:21.960Z,99458.59
2023-03-02T23:06:54.631Z,99459.81
2023-03-02T23:09:27.266Z,99460.63
2023-03-02T23:12:01.087Z,99453.94
2023-03-02T23:14:36.940Z,99461.53
2023-03-02T23:17:16.957Z,99466.97
2023-03-02T23:19:46.024Z,99472.34
2023-03-02T23:22:15.196Z,99471.75
2023-03-02T23:24:43.861Z,99469.88
2023-03-02T23:27:14.086Z,99465.28
2023-03-02T23:29:42.870Z,99462.72
2023-03-02T23:32:11.719Z,99464.28
2023-03-02T23:34:40.639Z,99460.06
2023-03-02T23:37:09.363Z,99459.28
2023-03-02T23:39:38.082Z,99459.66
2023-03-02T23:42:07.253Z,99453.75
2023-03-02T23:44:37.371Z,99455.78
2023-03-02T23:47:06.300Z,99455.63
2023-03-02T23:49:34.980Z,99456.13
2023-03-02T23:52:03.678Z,99457.59
2023-03-02T23:54:32.407Z,99455.97
2023-03-02T23:57:01.138Z,99464.25
2023-03-02T23:59:29.814Z,99455.88
